Addison, Texas
Current Conditions -  °F | °C
As of 3:55 AM on Friday 19 Dec 2014 (Local Time) from KADS Reporting Station
Overcast Overcast  
Wind Chill: 43°   Ceiling: 600
Heat Index: 46°   Visibility: 7mi
Dew Point: 46°   Wind: 5mph
Humidity: 100%   Direction: 40°NE
Pressure: 30.16"   Gusts: NA
Location:  32.95°N, 96.82°W
Report Text: KADS 190955Z AUTO 04004KT 7SM OVC006 08/08 A3016 RMK AO2 T00760076
Loading
Personal Weather Stations






























Interactive Weather Map New forecast layout! Learn more

10-Day Weather Forecast

Advertisements
Track Severe Weather on mobile